Time;durP1;ratioP1;P1;durP2;ratioP2;P2;SDS_P1;SDS_P2;PMS_P1;PMS_P2;Temp;Humidity;BMP_temperature;BMP_pressure;BME280_temperature;BME280_humidity;BME280_pressure;Samples;Min_cycle;Max_cycle;Signal;HPM_P1;HPM_P2
2023/05/13 00:01:06;;;;;;;4.38;3.70;;;12.40;80.90;;;;;;5095306;28;20031;-89
2023/05/13 00:03:32;;;;;;;4.18;3.78;;;12.30;80.80;;;;;;5094956;28;20115;-89
2023/05/13 00:05:57;;;;;;;5.13;4.15;;;12.30;80.80;;;;;;5094920;28;20027;-88
2023/05/13 00:08:23;;;;;;;4.47;3.63;;;12.30;80.80;;;;;;5094678;28;20028;-73
2023/05/13 00:10:48;;;;;;;4.03;3.63;;;12.30;80.80;;;;;;5093259;28;20031;-74
2023/05/13 00:13:14;;;;;;;3.80;3.45;;;12.30;80.80;;;;;;5093139;28;20077;-72
2023/05/13 00:15:40;;;;;;;5.60;3.38;;;12.30;80.90;;;;;;5093193;28;20050;-72
2023/05/13 00:18:05;;;;;;;3.30;3.00;;;12.30;80.80;;;;;;5093412;28;20055;-77
2023/05/13 00:20:31;;;;;;;4.28;3.55;;;12.30;80.70;;;;;;5093651;28;20437;-71
2023/05/13 00:22:57;;;;;;;3.08;2.75;;;12.30;80.70;;;;;;5094863;28;20028;-72
2023/05/13 00:25:22;;;;;;;4.80;3.63;;;12.30;80.90;;;;;;5093247;28;20099;-71
2023/05/13 00:27:48;;;;;;;4.90;3.45;;;12.30;80.90;;;;;;5093111;28;20024;-72
2023/05/13 00:30:14;;;;;;;4.30;3.47;;;12.30;80.80;;;;;;5092933;28;20072;-71
2023/05/13 00:32:39;;;;;;;4.57;3.00;;;12.30;80.90;;;;;;5093030;28;20032;-71
2023/05/13 00:35:05;;;;;;;3.45;3.10;;;12.20;80.90;;;;;;5092603;28;20021;-76
2023/05/13 00:37:31;;;;;;;3.80;2.95;;;12.20;81.00;;;;;;5092802;28;20131;-72
2023/05/13 00:39:56;;;;;;;5.55;3.75;;;12.20;81.20;;;;;;5092856;28;20027;-72
2023/05/13 00:42:22;;;;;;;3.33;3.03;;;12.20;81.00;;;;;;5093498;28;20130;-80
2023/05/13 00:44:47;;;;;;;3.63;3.08;;;12.10;81.20;;;;;;5093055;28;20020;-79
2023/05/13 00:47:13;;;;;;;4.32;3.83;;;12.10;81.40;;;;;;5092916;28;20089;-72
2023/05/13 00:49:39;;;;;;;4.70;4.18;;;12.00;81.40;;;;;;5093088;28;20146;-78
2023/05/13 00:52:05;;;;;;;5.28;4.05;;;12.00;81.70;;;;;;5108663;28;20526;-79
2023/05/13 00:54:31;;;;;;;5.57;3.35;;;11.90;81.90;;;;;;5092929;28;20028;-76
2023/05/13 00:56:58;;;;;;;3.28;2.97;;;11.90;82.00;;;;;;5093433;28;20036;-79
2023/05/13 00:59:26;;;;;;;4.43;3.67;;;11.90;81.90;;;;;;5093290;28;20472;-77
2023/05/13 01:02:25;;;;;;;5.05;3.10;;;11.90;82.10;;;;;;5092878;28;20036;-74
2023/05/13 01:05:16;;;;;;;7.53;2.95;;;11.90;82.20;;;;;;5075730;28;20036;-77
2023/05/13 01:08:04;;;;;;;4.38;3.05;;;11.90;82.20;;;;;;5093874;28;20031;-80
2023/05/13 01:10:37;;;;;;;3.67;3.00;;;11.90;82.00;;;;;;5098807;28;20154;-75
2023/05/13 01:13:12;;;;;;;2.92;2.47;;;12.00;82.00;;;;;;5099897;28;20113;-79
2023/05/13 01:15:48;;;;;;;3.50;3.13;;;12.00;81.80;;;;;;5093298;28;20034;-73
2023/05/13 01:18:22;;;;;;;3.92;3.30;;;12.10;81.70;;;;;;5092573;28;20028;-74
2023/05/13 01:20:48;;;;;;;3.45;3.15;;;12.10;81.50;;;;;;5074429;28;20039;-71
2023/05/13 01:23:13;;;;;;;4.88;3.65;;;12.10;81.30;;;;;;5092468;28;20095;-72
2023/05/13 01:25:39;;;;;;;5.90;3.70;;;12.10;81.50;;;;;;5092550;28;20056;-72
2023/05/13 01:28:07;;;;;;;6.40;4.20;;;12.10;81.10;;;;;;5092569;28;20020;-72
2023/05/13 01:30:33;;;;;;;4.35;3.58;;;12.00;80.90;;;;;;5074531;28;20046;-71
2023/05/13 01:32:59;;;;;;;3.92;3.50;;;12.00;81.40;;;;;;5092446;28;20077;-72
2023/05/13 01:35:27;;;;;;;3.67;3.28;;;11.90;81.40;;;;;;5092275;28;20032;-74
2023/05/13 01:37:55;;;;;;;3.78;3.35;;;11.90;81.60;;;;;;5092603;28;20052;-72
2023/05/13 01:40:21;;;;;;;4.60;4.00;;;11.90;81.70;;;;;;5095961;28;20070;-72
2023/05/13 01:42:47;;;;;;;4.95;4.40;;;11.90;81.60;;;;;;5096080;28;20032;-74
2023/05/13 01:45:13;;;;;;;4.55;3.97;;;11.80;81.50;;;;;;5096023;28;20020;-72
2023/05/13 01:47:39;;;;;;;5.05;3.88;;;11.80;81.90;;;;;;5096024;28;20509;-78
2023/05/13 01:50:05;;;;;;;4.63;3.10;;;11.70;82.10;;;;;;5096541;28;20089;-76
2023/05/13 01:52:30;;;;;;;4.65;4.25;;;11.70;82.10;;;;;;5096476;28;20058;-77
2023/05/13 01:54:56;;;;;;;4.95;3.45;;;11.70;82.00;;;;;;5096518;28;20028;-81
2023/05/13 01:57:22;;;;;;;5.82;3.97;;;11.70;82.20;;;;;;5096420;28;20130;-81
2023/05/13 01:59:47;;;;;;;4.30;3.90;;;11.70;82.10;;;;;;5095995;28;20095;-77
2023/05/13 02:02:13;;;;;;;4.13;3.70;;;11.60;82.10;;;;;;5095834;28;20032;-83
2023/05/13 02:04:39;;;;;;;5.82;4.00;;;11.60;82.20;;;;;;5096593;28;20026;-83
2023/05/13 02:07:04;;;;;;;4.22;3.42;;;11.70;82.20;;;;;;5096905;28;20030;-77
2023/05/13 02:09:30;;;;;;;4.38;3.45;;;11.70;82.20;;;;;;5097285;28;20457;-79
2023/05/13 02:11:55;;;;;;;8.43;3.55;;;11.80;82.30;;;;;;5097642;28;20027;-81
2023/05/13 02:14:21;;;;;;;5.97;3.53;;;11.80;82.20;;;;;;5097564;28;20020;-80
2023/05/13 02:16:46;;;;;;;4.82;3.40;;;11.80;82.90;;;;;;5097658;28;20516;-79
2023/05/13 02:19:12;;;;;;;5.00;4.50;;;11.90;81.90;;;;;;5097070;28;20087;-78
2023/05/13 02:21:37;;;;;;;7.22;5.65;;;11.90;81.40;;;;;;5096814;28;20054;-84
2023/05/13 02:24:03;;;;;;;7.03;5.18;;;11.80;80.80;;;;;;5097458;28;20372;-85
2023/05/13 02:26:29;;;;;;;7.88;5.43;;;11.70;81.60;;;;;;5097694;28;20028;-86
2023/05/13 02:28:54;;;;;;;6.88;4.90;;;11.60;82.30;;;;;;5097417;28;20027;-86
2023/05/13 02:31:20;;;;;;;7.75;6.07;;;11.40;83.40;;;;;;5112701;28;20028;-87
2023/05/13 02:33:45;;;;;;;6.90;5.90;;;11.30;83.80;;;;;;5096743;28;20020;-72
2023/05/13 02:36:11;;;;;;;7.15;5.95;;;11.20;84.40;;;;;;5094716;28;20036;-71
2023/05/13 02:38:36;;;;;;;7.85;6.90;;;11.10;85.10;;;;;;5095100;28;20039;-72
2023/05/13 02:41:02;;;;;;;8.13;6.55;;;11.00;85.60;;;;;;5094890;28;20036;-71
2023/05/13 02:43:28;;;;;;;10.40;7.20;;;10.90;85.80;;;;;;5076612;28;20472;-72
2023/05/13 02:45:54;;;;;;;8.48;7.68;;;10.90;85.90;;;;;;5094874;28;20472;-71
2023/05/13 02:48:19;;;;;;;8.88;7.53;;;10.90;86.00;;;;;;5095084;28;20035;-72
2023/05/13 02:50:45;;;;;;;8.40;7.60;;;10.80;86.20;;;;;;5105950;28;20031;-72
2023/05/13 02:53:11;;;;;;;8.95;6.93;;;10.80;86.20;;;;;;5085280;28;20035;-72
2023/05/13 02:55:36;;;;;;;9.57;8.10;;;10.80;86.20;;;;;;5101500;28;20020;-71
2023/05/13 02:58:02;;;;;;;12.02;8.80;;;10.80;86.10;;;;;;5078582;28;20492;-72
2023/05/13 03:00:27;;;;;;;9.55;8.52;;;10.80;86.40;;;;;;5094597;28;20037;-74
2023/05/13 03:02:53;;;;;;;9.52;7.75;;;10.80;86.70;;;;;;5094454;28;20040;-72
2023/05/13 03:05:18;;;;;;;12.10;8.23;;;10.80;86.40;;;;;;5094468;28;20035;-71
2023/05/13 03:07:44;;;;;;;9.30;8.27;;;10.80;86.20;;;;;;5095646;28;20025;-87
2023/05/13 03:10:10;;;;;;;8.70;7.80;;;10.80;86.30;;;;;;5078026;28;20369;-89
2023/05/13 03:12:35;;;;;;;10.27;8.73;;;10.80;86.30;;;;;;5096012;28;20099;-88
2023/05/13 03:15:02;;;;;;;9.23;8.30;;;10.80;86.20;;;;;;5097288;28;20020;-90
2023/05/13 03:17:30;;;;;;;8.95;8.07;;;10.80;86.30;;;;;;5109843;28;20067;-89
2023/05/13 03:19:56;;;;;;;10.05;8.82;;;10.70;86.50;;;;;;5096634;28;20016;-90
2023/05/13 03:22:22;;;;;;;9.77;7.13;;;10.80;86.30;;;;;;5096453;28;20468;-89
2023/05/13 03:24:47;;;;;;;9.48;8.50;;;10.80;86.30;;;;;;5096804;28;20058;-90
2023/05/13 03:27:13;;;;;;;10.45;9.13;;;10.80;86.10;;;;;;5118005;28;20026;-90
2023/05/13 03:29:39;;;;;;;13.73;8.65;;;10.80;86.40;;;;;;5095516;28;20034;-79
2023/05/13 03:32:05;;;;;;;9.80;8.48;;;10.70;86.50;;;;;;5094996;28;20015;-83
2023/05/13 03:34:32;;;;;;;12.13;8.90;;;10.70;86.70;;;;;;5077440;28;20028;-87
2023/05/13 03:36:58;;;;;;;9.32;8.43;;;10.70;86.80;;;;;;5095053;28;20044;-83
2023/05/13 03:39:25;;;;;;;12.05;9.18;;;10.70;87.00;;;;;;5095288;28;20035;-74
2023/05/13 03:41:51;;;;;;;10.80;9.70;;;10.70;86.90;;;;;;5093671;28;20032;-73
2023/05/13 03:44:16;;;;;;;10.45;9.38;;;10.70;86.80;;;;;;5093641;28;20096;-74
2023/05/13 03:46:42;;;;;;;9.98;8.98;;;10.70;86.90;;;;;;5093562;28;20345;-73
2023/05/13 03:49:07;;;;;;;13.35;10.52;;;10.70;86.90;;;;;;5093555;28;20099;-74
2023/05/13 03:51:33;;;;;;;11.90;10.20;;;10.80;86.80;;;;;;5093405;28;20051;-72
2023/05/13 03:53:59;;;;;;;13.20;9.48;;;10.80;86.70;;;;;;5093455;28;20059;-73
2023/05/13 03:56:25;;;;;;;13.60;10.02;;;10.80;86.60;;;;;;5093442;28;20030;-73
2023/05/13 03:58:50;;;;;;;10.75;9.52;;;10.70;86.70;;;;;;5093760;28;20413;-84
2023/05/13 04:01:16;;;;;;;10.20;9.10;;;10.70;86.70;;;;;;5093367;28;20043;-74
2023/05/13 04:03:44;;;;;;;9.60;8.55;;;10.80;86.70;;;;;;5093678;28;20028;-76
2023/05/13 04:06:09;;;;;;;9.77;8.77;;;10.80;86.80;;;;;;5093378;28;20024;-72
2023/05/13 04:08:35;;;;;;;11.27;10.10;;;10.80;86.80;;;;;;5093415;28;20039;-72
2023/05/13 04:11:00;;;;;;;10.10;8.98;;;10.90;86.60;;;;;;5093382;28;20031;-72
2023/05/13 04:13:26;;;;;;;10.25;8.32;;;10.90;86.50;;;;;;5093294;28;20036;-73
2023/05/13 04:15:53;;;;;;;9.60;8.60;;;10.80;86.30;;;;;;5093356;28;20016;-73
2023/05/13 04:18:19;;;;;;;11.80;9.77;;;10.90;86.40;;;;;;5093166;28;20016;-73
2023/05/13 04:20:44;;;;;;;9.10;8.20;;;10.90;86.30;;;;;;5093127;28;20081;-73
2023/05/13 04:23:10;;;;;;;10.43;9.32;;;10.90;86.30;;;;;;5093317;28;20035;-75
2023/05/13 04:25:38;;;;;;;11.00;8.63;;;10.90;86.10;;;;;;5093160;28;20024;-73
2023/05/13 04:28:04;;;;;;;10.07;9.07;;;10.90;86.20;;;;;;5093312;28;20059;-73
2023/05/13 04:30:30;;;;;;;12.07;10.00;;;10.90;86.10;;;;;;5093450;28;20020;-73
2023/05/13 04:32:56;;;;;;;11.95;9.18;;;10.80;86.40;;;;;;5093610;28;20468;-73
2023/05/13 04:35:21;;;;;;;9.18;8.27;;;10.80;86.70;;;;;;5093493;28;20020;-73
2023/05/13 04:37:48;;;;;;;12.48;8.65;;;10.80;86.80;;;;;;5093362;28;20130;-73
2023/05/13 04:40:14;;;;;;;9.98;8.98;;;10.90;86.70;;;;;;5103000;28;20001;-77
2023/05/13 04:42:39;;;;;;;9.60;7.85;;;10.90;86.40;;;;;;5117728;28;20076;-76
2023/05/13 04:45:05;;;;;;;8.80;7.90;;;10.90;86.40;;;;;;5112977;28;20031;-83
2023/05/13 04:47:34;;;;;;;8.43;7.63;;;10.90;86.20;;;;;;5106990;28;20035;-87
2023/05/13 04:50:00;;;;;;;9.15;8.25;;;11.00;86.00;;;;;;5112867;28;20013;-78
2023/05/13 04:52:25;;;;;;;9.57;7.45;;;11.00;85.90;;;;;;5098098;28;20004;-83
2023/05/13 04:54:51;;;;;;;9.27;8.30;;;11.00;85.90;;;;;;5113839;28;20030;-87
2023/05/13 04:57:16;;;;;;;9.77;8.35;;;11.10;85.80;;;;;;5095822;28;20500;-73
2023/05/13 04:59:42;;;;;;;11.38;7.45;;;11.10;85.60;;;;;;5093140;28;20043;-72
2023/05/13 05:02:07;;;;;;;8.38;7.57;;;11.10;85.60;;;;;;5093370;28;20047;-72
2023/05/13 05:04:33;;;;;;;7.18;6.47;;;11.10;85.80;;;;;;5093129;28;20095;-72
2023/05/13 05:06:59;;;;;;;14.20;7.95;;;11.10;85.70;;;;;;5093440;28;20107;-72
2023/05/13 05:09:24;;;;;;;7.60;6.80;;;11.20;85.50;;;;;;5093123;28;20051;-72
2023/05/13 05:11:50;;;;;;;7.88;7.07;;;11.20;85.30;;;;;;5093670;28;20024;-72
2023/05/13 05:14:16;;;;;;;8.90;8.00;;;11.30;85.10;;;;;;5080640;28;20024;-72
2023/05/13 05:16:41;;;;;;;10.70;7.82;;;11.20;84.80;;;;;;5086136;28;20024;-72
2023/05/13 05:19:07;;;;;;;7.80;7.00;;;11.20;85.00;;;;;;5101856;28;20038;-72
2023/05/13 05:21:32;;;;;;;7.95;7.15;;;11.20;84.80;;;;;;5104753;28;20040;-72
2023/05/13 05:23:58;;;;;;;11.05;6.93;;;11.20;84.70;;;;;;5104369;28;20020;-73
2023/05/13 05:26:24;;;;;;;10.52;8.27;;;11.20;84.70;;;;;;5102354;28;20028;-73
2023/05/13 05:28:49;;;;;;;8.65;7.30;;;11.20;84.50;;;;;;5135680;28;20019;-73
2023/05/13 05:31:15;;;;;;;7.68;6.88;;;11.20;84.70;;;;;;5118322;28;20028;-74
2023/05/13 05:33:41;;;;;;;6.65;6.05;;;11.20;84.80;;;;;;5117554;28;20020;-74
2023/05/13 05:36:07;;;;;;;7.90;7.18;;;11.20;84.90;;;;;;5116096;28;20028;-81
2023/05/13 05:38:33;;;;;;;7.38;6.40;;;11.30;84.80;;;;;;5115136;28;20040;-82
2023/05/13 05:40:58;;;;;;;7.88;7.07;;;11.30;84.60;;;;;;5116523;28;20035;-80
2023/05/13 05:43:24;;;;;;;8.45;7.55;;;11.40;84.40;;;;;;5114291;28;20016;-79
2023/05/13 05:45:49;;;;;;;7.47;6.78;;;11.40;84.20;;;;;;5112589;28;20072;-79
2023/05/13 05:48:15;;;;;;;8.25;7.32;;;11.40;84.10;;;;;;5116420;28;20051;-83
2023/05/13 05:50:41;;;;;;;8.15;7.30;;;11.30;84.00;;;;;;5111499;28;20023;-83
2023/05/13 05:53:07;;;;;;;8.60;7.80;;;11.30;84.40;;;;;;5101573;28;20176;-86
2023/05/13 05:55:32;;;;;;;9.45;7.82;;;11.20;84.80;;;;;;5105632;28;20457;-85
2023/05/13 05:58:02;;;;;;;9.93;7.95;;;11.10;85.20;;;;;;5109463;28;20086;-73
2023/05/13 06:00:28;;;;;;;9.30;8.15;;;11.10;85.30;;;;;;5097209;28;20036;-75
2023/05/13 06:02:56;;;;;;;9.77;7.65;;;11.10;85.40;;;;;;5078643;28;20028;-71
2023/05/13 06:05:21;;;;;;;6.90;6.20;;;11.20;85.30;;;;;;5096013;28;20095;-72
2023/05/13 06:07:47;;;;;;;15.02;7.68;;;11.30;85.30;;;;;;5095612;28;20063;-73
2023/05/13 06:10:13;;;;;;;6.95;6.18;;;11.30;84.90;;;;;;5095165;28;20430;-73
2023/05/13 06:12:39;;;;;;;11.65;7.72;;;11.30;84.90;;;;;;5095870;28;20035;-73
2023/05/13 06:15:09;;;;;;;11.25;8.00;;;11.30;84.50;;;;;;5111470;28;20039;-72
2023/05/13 06:17:38;;;;;;;11.93;8.73;;;11.30;84.70;;;;;;5095409;28;20023;-73
2023/05/13 06:20:04;;;;;;;10.38;8.18;;;11.30;84.80;;;;;;5095281;28;20020;-73
2023/05/13 06:22:30;;;;;;;12.13;8.70;;;11.20;84.90;;;;;;5076977;28;20032;-72
2023/05/13 06:24:55;;;;;;;11.95;7.90;;;11.20;85.00;;;;;;5094945;28;20024;-73
2023/05/13 06:27:21;;;;;;;8.90;8.00;;;11.10;85.20;;;;;;5111031;28;20034;-73
2023/05/13 06:29:47;;;;;;;12.18;8.45;;;11.10;85.60;;;;;;5110880;28;20024;-73
2023/05/13 06:32:13;;;;;;;12.68;9.43;;;11.10;85.60;;;;;;5110460;28;20119;-73
2023/05/13 06:34:44;;;;;;;10.45;8.85;;;11.10;85.60;;;;;;5077137;28;20463;-73
2023/05/13 06:37:10;;;;;;;10.85;8.40;;;11.10;85.40;;;;;;5095179;28;20052;-71
2023/05/13 06:39:36;;;;;;;12.60;8.23;;;11.20;84.90;;;;;;5094745;28;20484;-71
2023/05/13 06:42:03;;;;;;;12.15;8.27;;;11.30;84.70;;;;;;5094649;28;20579;-70
2023/05/13 06:44:31;;;;;;;8.07;6.97;;;11.30;84.30;;;;;;5094722;28;20028;-71
2023/05/13 06:46:57;;;;;;;9.07;8.18;;;11.30;84.40;;;;;;5094848;28;20112;-73
2023/05/13 06:49:23;;;;;;;9.05;8.15;;;11.30;84.20;;;;;;5110213;28;20028;-73
2023/05/13 06:51:49;;;;;;;10.20;7.40;;;11.30;84.30;;;;;;5110561;28;20376;-74
2023/05/13 06:54:15;;;;;;;7.88;7.07;;;11.30;84.10;;;;;;5076523;28;20380;-72
2023/05/13 06:56:41;;;;;;;13.48;6.97;;;11.40;84.50;;;;;;5109944;28;20024;-72
2023/05/13 06:59:06;;;;;;;8.10;6.90;;;11.50;84.80;;;;;;5110196;28;20028;-73
2023/05/13 07:01:32;;;;;;;10.55;6.43;;;11.80;84.00;;;;;;5110001;28;20032;-72
2023/05/13 07:03:57;;;;;;;8.10;6.32;;;12.00;82.80;;;;;;5110380;28;20024;-74
2023/05/13 07:06:24;;;;;;;10.45;5.80;;;12.20;81.40;;;;;;5110487;28;20024;-76
2023/05/13 07:08:51;;;;;;;7.85;5.53;;;12.40;82.80;;;;;;5110409;28;20028;-79
2023/05/13 07:11:17;;;;;;;13.88;5.47;;;12.70;81.30;;;;;;5109391;28;20032;-77
2023/05/13 07:13:46;;;;;;;6.97;4.60;;;13.10;79.00;;;;;;5110111;28;20097;-78
2023/05/13 07:16:13;;;;;;;5.07;4.57;;;13.50;78.30;;;;;;5076241;28;20028;-77
2023/05/13 07:18:39;;;;;;;22.27;5.38;;;13.80;75.40;;;;;;5095024;28;20070;-76
2023/05/13 07:21:06;;;;;;;5.25;3.83;;;14.00;74.20;;;;;;5110352;28;20028;-76
2023/05/13 07:23:32;;;;;;;11.82;4.15;;;14.20;72.60;;;;;;5110670;28;20032;-76
2023/05/13 07:25:59;;;;;;;16.88;4.40;;;14.30;72.30;;;;;;5094486;28;20028;-79
2023/05/13 07:28:26;;;;;;;6.15;3.70;;;14.40;71.40;;;;;;5110299;28;20024;-76
2023/05/13 07:30:52;;;;;;;4.82;4.25;;;14.40;70.90;;;;;;5110864;28;20035;-76
2023/05/13 07:33:19;;;;;;;4.68;3.38;;;14.50;70.30;;;;;;5109394;28;20039;-76
2023/05/13 07:35:46;;;;;;;5.85;3.88;;;14.50;70.20;;;;;;5075229;28;20020;-76
2023/05/13 07:38:11;;;;;;;3.40;3.10;;;14.60;69.70;;;;;;5075459;28;20024;-76
2023/05/13 07:40:37;;;;;;;5.97;3.63;;;14.80;69.30;;;;;;5109468;28;20093;-78
2023/05/13 07:43:03;;;;;;;8.18;4.45;;;14.90;68.40;;;;;;5110023;28;20024;-76
2023/05/13 07:45:28;;;;;;;4.20;3.05;;;15.00;67.90;;;;;;5109550;28;20031;-76
2023/05/13 07:47:54;;;;;;;6.22;4.30;;;14.90;68.60;;;;;;5108793;28;20020;-73
2023/05/13 07:50:19;;;;;;;6.05;4.07;;;14.90;68.00;;;;;;5109310;28;20523;-73
2023/05/13 07:52:47;;;;;;;5.47;4.03;;;14.60;68.10;;;;;;5093399;28;20420;-73
2023/05/13 07:55:16;;;;;;;4.85;4.43;;;14.20;69.70;;;;;;5108768;28;20024;-73
2023/05/13 07:57:42;;;;;;;5.72;4.40;;;14.00;70.60;;;;;;5074987;28;20028;-73
2023/05/13 08:00:08;;;;;;;4.97;4.38;;;13.80;71.60;;;;;;5093305;28;20028;-72
2023/05/13 08:02:37;;;;;;;5.97;4.57;;;13.70;72.10;;;;;;5093048;28;20480;-73
2023/05/13 08:05:03;;;;;;;6.72;5.15;;;13.60;72.60;;;;;;5093122;28;20069;-73
2023/05/13 08:07:29;;;;;;;5.13;4.60;;;13.40;72.90;;;;;;5093084;28;20060;-73
2023/05/13 08:09:54;;;;;;;8.02;4.82;;;13.30;73.90;;;;;;5093100;28;20047;-73
2023/05/13 08:12:20;;;;;;;4.45;4.05;;;13.20;74.20;;;;;;5093137;28;20089;-73
2023/05/13 08:14:46;;;;;;;6.10;5.50;;;13.00;74.80;;;;;;5092785;28;20024;-72
2023/05/13 08:17:11;;;;;;;5.43;4.70;;;12.80;75.80;;;;;;5092604;28;20111;-73
2023/05/13 08:19:37;;;;;;;7.45;5.03;;;12.80;76.50;;;;;;5092880;28;20100;-72
2023/05/13 08:22:03;;;;;;;7.40;4.13;;;12.90;76.70;;;;;;5092722;28;20104;-72
2023/05/13 08:24:29;;;;;;;6.22;4.55;;;13.10;76.30;;;;;;5093028;28;20537;-73
2023/05/13 08:26:55;;;;;;;5.28;4.60;;;13.20;75.40;;;;;;5093113;28;20108;-75
2023/05/13 08:29:20;;;;;;;6.55;4.68;;;13.20;74.80;;;;;;5093188;28;20052;-73
2023/05/13 08:31:46;;;;;;;8.38;5.32;;;12.90;74.60;;;;;;5092631;28;20100;-73
2023/05/13 08:34:12;;;;;;;6.82;5.00;;;12.70;75.50;;;;;;5092586;28;20073;-73
2023/05/13 08:36:37;;;;;;;5.82;5.22;;;12.50;76.40;;;;;;5092589;28;20052;-73
2023/05/13 08:39:03;;;;;;;6.65;5.50;;;12.50;76.40;;;;;;5092526;28;20024;-73
2023/05/13 08:41:32;;;;;;;6.90;5.60;;;12.40;76.50;;;;;;5092240;28;20407;-73
2023/05/13 08:43:59;;;;;;;7.38;4.85;;;12.30;76.70;;;;;;5092390;28;20047;-73
2023/05/13 08:46:27;;;;;;;11.88;5.00;;;12.30;77.30;;;;;;5092573;28;20016;-73
2023/05/13 08:48:54;;;;;;;6.82;4.45;;;12.30;77.40;;;;;;5094226;28;20030;-73
2023/05/13 08:51:20;;;;;;;6.90;5.05;;;12.30;77.10;;;;;;5096745;28;20562;-73
2023/05/13 08:53:47;;;;;;;5.00;4.32;;;12.20;77.10;;;;;;5096648;28;20047;-78
2023/05/13 08:56:13;;;;;;;7.57;5.35;;;12.30;77.20;;;;;;5097023;28;20063;-74
2023/05/13 08:58:38;;;;;;;6.85;5.82;;;12.40;76.70;;;;;;5099252;28;20055;-75
2023/05/13 09:01:06;;;;;;;6.72;5.20;;;12.40;76.50;;;;;;5096541;28;20036;-73
2023/05/13 09:03:33;;;;;;;6.63;5.25;;;12.40;76.10;;;;;;5096464;28;20016;-74
2023/05/13 09:06:00;;;;;;;7.57;5.05;;;12.40;76.10;;;;;;5096042;28;20077;-72
2023/05/13 09:08:26;;;;;;;21.08;6.75;;;12.50;76.10;;;;;;5096358;28;20078;-73
2023/05/13 09:10:52;;;;;;;9.77;4.38;;;12.60;75.20;;;;;;5096449;28;20028;-73
2023/05/13 09:13:18;;;;;;;10.55;5.25;;;12.70;75.30;;;;;;5096008;28;20107;-72
2023/05/13 09:15:44;;;;;;;5.22;4.70;;;12.80;75.10;;;;;;5096261;28;20099;-73
2023/05/13 09:18:10;;;;;;;6.13;4.38;;;12.90;74.70;;;;;;5096025;28;20136;-73
2023/05/13 09:20:36;;;;;;;6.97;4.70;;;13.00;73.80;;;;;;5096053;28;20480;-74
2023/05/13 09:23:07;;;;;;;5.35;4.65;;;12.90;73.40;;;;;;5095936;28;20032;-73
2023/05/13 09:25:33;;;;;;;6.90;3.75;;;13.00;73.50;;;;;;5095952;28;20480;-73
2023/05/13 09:28:01;;;;;;;6.78;4.40;;;13.00;73.70;;;;;;5096063;28;20468;-73
2023/05/13 09:30:29;;;;;;;6.18;4.82;;;12.90;73.60;;;;;;5095694;28;20029;-73
2023/05/13 09:33:15;;;;;;;9.50;5.22;;;13.00;73.70;;;;;;5095808;28;20031;-73
2023/05/13 09:35:42;;;;;;;7.70;4.75;;;12.90;74.80;;;;;;5095573;28;20033;-73
2023/05/13 09:38:20;;;;;;;7.07;4.20;;;12.70;74.40;;;;;;5095699;28;20096;-73
2023/05/13 09:40:58;;;;;;;6.45;4.47;;;12.70;74.60;;;;;;5095394;28;20365;-74
2023/05/13 09:43:26;;;;;;;6.13;4.70;;;12.70;74.50;;;;;;5077377;28;20028;-73
2023/05/13 09:45:53;;;;;;;5.25;3.90;;;12.70;74.80;;;;;;5095600;28;20016;-73
2023/05/13 09:48:21;;;;;;;6.50;5.10;;;12.60;74.70;;;;;;5095460;28;20020;-73
2023/05/13 09:50:48;;;;;;;5.95;5.07;;;12.70;75.50;;;;;;5095630;28;20016;-74
2023/05/13 09:53:14;;;;;;;4.85;4.20;;;12.60;75.00;;;;;;5095430;28;20095;-73
2023/05/13 09:55:47;;;;;;;6.15;5.22;;;12.70;75.20;;;;;;5095530;28;20016;-74
2023/05/13 09:58:13;;;;;;;9.27;5.45;;;12.60;75.00;;;;;;5095580;28;20081;-73
2023/05/13 10:00:40;;;;;;;6.65;5.68;;;12.40;75.60;;;;;;5094678;28;20111;-73
2023/05/13 10:03:06;;;;;;;9.73;5.72;;;12.40;76.00;;;;;;5095227;28;20028;-75
2023/05/13 10:05:33;;;;;;;6.93;5.78;;;12.40;76.40;;;;;;5095287;28;20073;-73
2023/05/13 10:08:00;;;;;;;6.05;5.20;;;12.40;76.50;;;;;;5077002;28;20035;-74
2023/05/13 10:10:31;;;;;;;9.48;5.65;;;12.30;76.50;;;;;;5095171;28;20469;-73
2023/05/13 10:13:12;;;;;;;6.32;4.85;;;12.30;76.60;;;;;;5095088;28;20027;-73
2023/05/13 10:15:56;;;;;;;9.57;5.40;;;12.30;76.50;;;;;;5095280;28;20206;-73
2023/05/13 10:18:22;;;;;;;10.32;6.00;;;12.30;76.50;;;;;;5094903;28;20024;-73
2023/05/13 10:20:51;;;;;;;5.85;5.03;;;12.30;76.70;;;;;;5094484;28;20060;-73
2023/05/13 10:23:18;;;;;;;7.60;5.18;;;12.30;76.80;;;;;;5094725;28;20037;-73
2023/05/13 10:25:46;;;;;;;7.47;5.53;;;12.30;76.90;;;;;;5094807;28;20020;-74
2023/05/13 10:28:13;;;;;;;13.70;6.15;;;12.40;76.50;;;;;;5094672;28;20028;-74
2023/05/13 10:30:39;;;;;;;9.18;6.07;;;12.50;76.30;;;;;;5094852;28;20453;-74
2023/05/13 10:33:05;;;;;;;10.80;6.20;;;12.40;76.20;;;;;;5094617;28;20108;-72
2023/05/13 10:35:35;;;;;;;7.20;5.93;;;12.50;76.30;;;;;;5094036;28;20073;-73
2023/05/13 10:38:24;;;;;;;8.38;5.85;;;12.50;76.30;;;;;;5094415;28;20039;-73
2023/05/13 10:41:01;;;;;;;7.57;5.85;;;12.50;75.90;;;;;;5094713;28;20056;-75
2023/05/13 10:43:29;;;;;;;9.57;7.03;;;12.50;75.80;;;;;;5094228;28;20043;-73
2023/05/13 10:46:00;;;;;;;8.82;5.95;;;12.60;75.90;;;;;;5094566;28;20049;-72
2023/05/13 10:48:25;;;;;;;8.63;6.20;;;12.70;75.90;;;;;;5076413;28;20028;-74
2023/05/13 10:50:56;;;;;;;6.93;5.80;;;12.70;75.30;;;;;;5094525;28;20020;-73
2023/05/13 10:53:24;;;;;;;10.65;6.57;;;12.70;75.30;;;;;;5094412;28;20068;-72
2023/05/13 10:55:58;;;;;;;8.75;6.63;;;12.60;75.20;;;;;;5094310;28;20095;-73
2023/05/13 10:58:32;;;;;;;10.80;7.00;;;12.50;75.50;;;;;;5094171;28;20376;-73
2023/05/13 11:01:29;;;;;;;10.05;4.68;;;12.50;76.80;;;;;;5094351;28;20488;-74
2023/05/13 11:03:57;;;;;;;8.20;6.05;;;12.60;76.00;;;;;;5094402;28;20053;-74
2023/05/13 11:06:37;;;;;;;10.20;6.35;;;12.60;75.60;;;;;;5094256;28;20104;-77
2023/05/13 11:09:11;;;;;;;9.85;6.25;;;12.60;75.50;;;;;;5076409;28;20053;-76
2023/05/13 11:11:37;;;;;;;11.98;7.07;;;12.70;75.30;;;;;;5093807;28;20031;-76
2023/05/13 11:14:12;;;;;;;12.60;6.72;;;12.70;74.50;;;;;;5094693;28;20039;-78
2023/05/13 11:16:43;;;;;;;;;;;12.70;74.50;;;;;;5094429;28;20036;-74
2023/05/13 11:19:28;;;;;;;10.85;6.13;;;12.70;74.70;;;;;;5075899;28;20252;-80
2023/05/13 11:22:10;;;;;;;13.13;8.05;;;12.70;74.70;;;;;;5093688;28;20036;-79
2023/05/13 11:24:35;;;;;;;12.07;7.82;;;12.70;74.90;;;;;;5093739;28;20020;-75
2023/05/13 11:27:20;;;;;;;10.60;7.30;;;12.80;74.80;;;;;;5093701;28;20035;-75
2023/05/13 11:29:54;;;;;;;8.98;7.35;;;12.90;74.00;;;;;;5093897;28;20043;-74
2023/05/13 11:32:51;;;;;;;10.93;6.90;;;12.70;74.10;;;;;;5093609;28;20024;-75
2023/05/13 11:35:26;;;;;;;9.15;6.78;;;12.60;74.80;;;;;;5093504;28;20024;-74
2023/05/13 11:37:52;;;;;;;;;;;12.70;75.10;;;;;;5093598;28;20036;-74
2023/05/13 11:40:22;;;;;;;8.88;6.38;;;12.70;75.60;;;;;;5074846;28;19953;-74
2023/05/13 11:42:48;;;;;;;10.65;7.40;;;12.80;75.20;;;;;;5092424;28;20107;-75
2023/05/13 11:45:15;;;;;;;14.10;8.00;;;12.90;75.30;;;;;;5092106;28;20127;-74
2023/05/13 11:47:41;;;;;;;13.48;8.75;;;12.90;74.90;;;;;;5092227;28;20069;-73
2023/05/13 11:50:20;;;;;;;13.07;7.75;;;12.90;74.30;;;;;;5092043;28;20020;-76
2023/05/13 11:52:53;;;;;;;20.42;8.27;;;12.80;74.30;;;;;;5089572;28;20042;-76
2023/05/13 11:55:33;;;;;;;11.55;8.15;;;12.60;74.50;;;;;;5092172;28;20464;-77
2023/05/13 11:57:59;;;;;;;13.70;8.32;;;12.40;75.10;;;;;;5092803;28;20016;-83
2023/05/13 12:00:26;;;;;;;12.20;7.75;;;12.30;75.60;;;;;;5092028;28;20024;-75
2023/05/13 12:02:53;;;;;;;13.45;7.97;;;12.40;76.50;;;;;;5093751;28;20028;-75
2023/05/13 12:05:18;;;;;;;11.93;7.97;;;12.40;75.90;;;;;;5096255;28;20024;-77
2023/05/13 12:07:44;;;;;;;8.70;6.88;;;12.40;76.00;;;;;;5097984;28;20031;-77
2023/05/13 12:10:10;;;;;;;11.32;7.70;;;12.50;76.20;;;;;;5098883;28;20103;-80
2023/05/13 12:12:41;;;;;;;13.32;7.97;;;12.50;76.10;;;;;;5099852;28;20024;-79
2023/05/13 12:15:12;;;;;;;12.13;8.57;;;12.50;75.80;;;;;;5098989;28;20028;-76
2023/05/13 12:17:38;;;;;;;9.88;8.00;;;12.40;75.90;;;;;;5094542;28;20380;-76
2023/05/13 12:20:10;;;;;;;15.02;8.52;;;12.40;76.20;;;;;;5092968;28;20020;-74
2023/05/13 12:22:48;;;;;;;11.77;7.75;;;12.30;76.70;;;;;;5092862;28;20078;-79
2023/05/13 12:25:35;;;;;;;13.98;9.90;;;12.30;77.10;;;;;;5092980;28;20062;-75
2023/05/13 12:28:19;;;;;;;12.18;7.95;;;12.30;77.30;;;;;;5092702;28;20032;-74
2023/05/13 12:30:57;;;;;;;10.48;8.02;;;12.30;77.20;;;;;;5092444;28;20152;-74
2023/05/13 12:33:28;;;;;;;11.07;7.15;;;12.30;77.20;;;;;;5092679;28;20103;-74
2023/05/13 12:36:24;;;;;;;12.85;9.50;;;12.30;77.10;;;;;;5092446;28;20391;-75
2023/05/13 12:39:03;;;;;;;23.55;10.73;;;12.30;77.40;;;;;;5092476;28;20024;-74
2023/05/13 12:41:37;;;;;;;14.40;8.52;;;12.30;77.20;;;;;;5092358;28;20488;-75
2023/05/13 12:44:04;;;;;;;11.80;8.57;;;12.20;77.90;;;;;;5091862;28;20142;-74
2023/05/13 12:46:29;;;;;;;14.70;8.50;;;12.10;78.10;;;;;;5092517;28;20051;-75